Time;durP1;ratioP1;P1;durP2;ratioP2;P2;SDS_P1;SDS_P2;PMS_P1;PMS_P2;Temp;Humidity;BMP_temperature;BMP_pressure;BME280_temperature;BME280_humidity;BME280_pressure;Samples;Min_cycle;Max_cycle;Signal;HPM_P1;HPM_P2
2021/09/14 00:00:55;;;;;;;4.65;4.15;;;;;;;10.92;100.00;93367.98;1814562;76;21491;-92
2021/09/14 00:03:21;;;;;;;4.17;3.50;;;;;;;10.89;100.00;93365.46;1807649;77;21159;-91
2021/09/14 00:05:47;;;;;;;5.83;4.10;;;;;;;10.85;100.00;93366.66;1842382;76;21094;-93
2021/09/14 00:08:14;;;;;;;6.65;4.17;;;;;;;10.80;100.00;93374.66;1824988;77;21079;-92
2021/09/14 00:10:42;;;;;;;5.58;4.50;;;;;;;10.78;100.00;93370.77;1813343;77;21069;-92
2021/09/14 00:13:08;;;;;;;8.75;6.08;;;;;;;10.74;100.00;93367.30;1830036;76;21001;-90
2021/09/14 00:15:35;;;;;;;10.25;5.42;;;;;;;10.72;100.00;93364.99;1821406;76;21060;-91
2021/09/14 00:18:04;;;;;;;6.78;5.05;;;;;;;10.70;100.00;93372.76;1834404;76;21021;-88
2021/09/14 00:20:30;;;;;;;7.40;5.37;;;;;;;10.67;100.00;93368.88;1817868;78;21031;-92
2021/09/14 00:22:57;;;;;;;9.55;5.67;;;;;;;10.65;100.00;93359.59;1802654;77;21033;-91
2021/09/14 00:25:23;;;;;;;7.22;5.45;;;;;;;10.64;100.00;93366.17;1801437;78;21016;-90
2021/09/14 00:27:50;;;;;;;8.90;5.87;;;;;;;10.65;100.00;93365.03;1803448;79;21044;-91
2021/09/14 00:30:18;;;;;;;11.95;6.78;;;;;;;10.65;100.00;93363.08;1804628;78;21104;-92
2021/09/14 00:32:45;;;;;;;10.25;5.72;;;;;;;10.62;100.00;93362.50;1790426;79;21036;-92
2021/09/14 00:35:11;;;;;;;7.47;6.05;;;;;;;10.62;100.00;93361.15;1804312;76;21099;-93
2021/09/14 00:37:39;;;;;;;15.00;6.00;;;;;;;10.64;100.00;93366.98;1820768;77;21010;-92
2021/09/14 00:40:07;;;;;;;8.25;6.05;;;;;;;10.64;100.00;93366.17;1824206;77;20993;-91
2021/09/14 00:42:34;;;;;;;10.15;5.83;;;;;;;10.62;100.00;93365.22;1795393;78;21144;-90
2021/09/14 00:45:03;;;;;;;7.25;5.53;;;;;;;10.62;100.00;93363.09;1793413;77;21013;-92
2021/09/14 00:47:31;;;;;;;6.95;5.30;;;;;;;10.65;100.00;93364.44;1803117;78;21189;-93
2021/09/14 00:49:58;;;;;;;5.85;4.47;;;;;;;10.70;100.00;93362.66;1802600;77;21461;-88
2021/09/14 00:52:24;;;;;;;6.45;5.22;;;;;;;10.70;100.00;93362.66;1763307;80;21037;-93
2021/09/14 00:54:51;;;;;;;5.17;4.05;;;;;;;10.70;100.00;93361.87;1789418;77;21659;-90
2021/09/14 00:57:20;;;;;;;6.85;5.28;;;;;;;10.67;100.00;93362.67;1799007;77;20971;-92
2021/09/14 00:59:46;;;;;;;7.67;5.47;;;;;;;10.65;100.00;93362.31;1799937;79;21018;-93
2021/09/14 01:02:13;;;;;;;9.85;6.25;;;;;;;10.62;100.00;93359.78;1802374;78;21045;-89
2021/09/14 01:04:39;;;;;;;6.55;5.45;;;;;;;10.59;100.00;93359.22;1794321;77;21050;-92
2021/09/14 01:07:06;;;;;;;6.42;5.67;;;;;;;10.61;100.00;93358.84;1800194;78;21125;-94
2021/09/14 01:09:36;;;;;;;8.28;6.33;;;;;;;10.60;100.00;93359.98;1797658;78;21034;-91
2021/09/14 01:12:05;;;;;;;7.60;5.47;;;;;;;10.61;100.00;93361.55;1805452;75;21017;-92
2021/09/14 01:14:31;;;;;;;9.05;5.92;;;;;;;10.63;100.00;93362.69;1793152;78;21105;-91
2021/09/14 01:17:00;;;;;;;6.67;4.87;;;;;;;10.64;100.00;93362.90;1797508;78;21679;-89
2021/09/14 01:19:28;;;;;;;6.42;4.30;;;;;;;10.68;100.00;93354.69;1802226;77;21042;-91
2021/09/14 01:21:55;;;;;;;7.72;4.75;;;;;;;10.69;100.00;93351.59;1803158;78;20978;-92
2021/09/14 01:24:22;;;;;;;7.08;4.72;;;;;;;10.71;100.00;93349.83;1803621;78;21544;-93
2021/09/14 01:26:52;;;;;;;9.43;5.50;;;;;;;10.70;100.00;93351.00;1792622;77;21657;-89
2021/09/14 01:32:06;;;;;;;7.15;5.78;;;;;;;10.65;100.00;93347.35;1803585;76;21542;-89
2021/09/14 01:34:34;;;;;;;9.18;6.30;;;;;;;10.64;100.00;93349.30;1804517;78;20969;-93
2021/09/14 01:37:01;;;;;;;6.15;5.12;;;;;;;10.65;100.00;93345.41;1799832;79;21072;-94
2021/09/14 01:39:29;;;;;;;5.75;4.40;;;;;;;10.69;100.00;93349.46;1806787;77;21096;-89
2021/09/14 01:41:58;;;;;;;5.47;4.10;;;;;;;10.73;100.00;93351.58;1817249;79;21067;-92
2021/09/14 01:44:24;;;;;;;4.62;4.22;;;;;;;10.75;100.00;93347.86;1808079;79;21705;-93
2021/09/14 01:46:53;;;;;;;5.70;4.83;;;;;;;10.71;100.00;93347.11;1795402;79;20977;-91
2021/09/14 01:49:20;;;;;;;6.50;4.85;;;;;;;10.67;100.00;93351.20;1804054;78;21080;-90
2021/09/14 01:51:46;;;;;;;7.50;4.83;;;;;;;10.66;100.00;93355.69;1807606;77;21123;-90
2021/09/14 01:54:13;;;;;;;5.35;4.85;;;;;;;10.66;100.00;93351.02;1762543;80;21624;-91
2021/09/14 01:56:41;;;;;;;7.83;4.72;;;;;;;10.65;100.00;93356.87;1834119;77;21037;-91
2021/09/14 01:59:08;;;;;;;5.83;4.87;;;;;;;10.64;100.00;93357.45;1816647;77;21009;-93
2021/09/14 02:01:50;;;;;;;7.90;4.95;;;;;;;10.66;100.00;93355.69;1804181;78;21028;-93
2021/09/14 02:04:20;;;;;;;4.65;4.25;;;;;;;10.68;100.00;93356.85;1797213;78;21045;-92
2021/09/14 02:07:17;;;;;;;5.17;4.70;;;;;;;10.70;100.00;93355.85;1755554;79;21073;-91
2021/09/14 02:39:53;;;;;;;6.30;5.20;;;;;;;10.82;100.00;93349.17;1804361;78;21126;-92
2021/09/14 02:42:18;;;;;;;6.50;5.90;;;;;;;10.82;100.00;93351.90;1808873;77;21024;-92
2021/09/14 03:00:46;;;;;;;7.45;5.17;;;;;;;10.76;100.00;93362.25;1757568;79;21028;-91
2021/09/14 03:03:12;;;;;;;6.75;6.08;;;;;;;10.75;100.00;93353.30;1771245;78;21101;-91
2021/09/14 03:05:41;;;;;;;7.60;6.25;;;;;;;10.79;100.00;93358.72;1772123;79;21033;-90
2021/09/14 03:08:09;;;;;;;5.30;4.80;;;;;;;10.83;100.00;93358.91;1785381;79;21083;-91
2021/09/14 03:10:36;;;;;;;6.45;4.85;;;;;;;10.85;100.00;93365.30;1790366;78;21396;-90
2021/09/14 03:13:03;;;;;;;7.62;6.35;;;;;;;10.85;100.00;93366.07;1752441;81;21115;-92
2021/09/14 03:15:29;;;;;;;7.33;6.03;;;;;;;10.85;100.00;93361.98;1733804;81;21532;-91
2021/09/14 03:17:59;;;;;;;9.78;6.33;;;;;;;10.83;100.00;93367.07;1772319;78;21135;-91
2021/09/14 03:20:26;;;;;;;8.18;6.17;;;;;;;10.85;100.00;93368.79;1789163;77;21403;-91
2021/09/14 03:22:52;;;;;;;8.05;6.25;;;;;;;10.87;100.00;93361.58;1765950;78;21017;-91
2021/09/14 03:25:21;;;;;;;5.50;4.90;;;;;;;10.88;100.00;93373.44;1748809;78;21054;-93
2021/09/14 03:27:49;;;;;;;5.30;4.67;;;;;;;10.87;100.00;93367.82;1802597;77;21693;-91
2021/09/14 03:30:18;;;;;;;7.17;4.87;;;;;;;10.86;100.00;93370.33;1766517;79;21527;-92
2021/09/14 03:32:44;;;;;;;6.22;5.62;;;;;;;10.86;100.00;93364.12;1763557;81;20943;-92
2021/09/14 03:35:11;;;;;;;9.48;5.85;;;;;;;10.86;100.00;93365.48;1763187;79;21018;-92
2021/09/14 03:37:38;;;;;;;6.42;4.47;;;;;;;10.86;100.00;93366.25;1745739;80;21073;-92
2021/09/14 03:40:09;;;;;;;4.92;4.45;;;;;;;10.85;100.00;93363.94;1750631;80;21049;-91
2021/09/14 03:42:37;;;;;;;4.97;4.33;;;;;;;10.84;100.00;93367.25;1778088;79;21232;-91
2021/09/14 03:45:04;;;;;;;7.05;4.85;;;;;;;10.82;100.00;93368.22;1770632;77;21539;-91
2021/09/14 03:47:34;;;;;;;5.95;5.40;;;;;;;10.79;100.00;93377.76;1775464;77;21053;-92
2021/09/14 03:50:01;;;;;;;5.78;5.17;;;;;;;10.77;100.00;93369.23;1778278;78;20966;-88
2021/09/14 03:52:31;;;;;;;6.03;4.90;;;;;;;10.79;100.00;93377.76;1776714;77;21224;-92
2021/09/14 03:54:59;;;;;;;7.50;5.60;;;;;;;10.80;100.00;93380.69;1769210;79;20951;-92
2021/09/14 03:57:27;;;;;;;10.00;6.42;;;;;;;10.79;100.00;93383.20;1753531;80;21516;-92
2021/09/14 03:59:55;;;;;;;5.95;5.03;;;;;;;10.77;100.00;93384.97;1791290;77;21104;-88
2021/09/14 04:09:53;;;;;;;8.28;6.20;;;;;;;10.78;100.00;93387.09;1845989;76;21508;-93
2021/09/14 04:12:20;;;;;;;14.63;5.33;;;;;;;10.76;100.00;93387.50;1808049;76;21481;-92
2021/09/14 04:14:48;;;;;;;6.95;5.78;;;;;;;10.73;100.00;93385.57;1821408;77;21004;-92
2021/09/14 04:17:15;;;;;;;8.63;5.60;;;;;;;10.67;100.00;93383.83;1821182;75;21152;-91
2021/09/14 04:19:42;;;;;;;9.55;6.12;;;;;;;10.68;100.00;93383.25;1811018;78;21094;-92
2021/09/14 04:22:10;;;;;;;10.93;5.87;;;;;;;10.72;100.00;93385.39;1827572;76;21014;-89
2021/09/14 04:24:39;;;;;;;9.58;6.17;;;;;;;10.70;100.00;93385.77;1809320;77;21081;-92
2021/09/14 04:27:08;;;;;;;7.72;5.58;;;;;;;10.65;100.00;93386.78;1775619;79;21050;-91
2021/09/14 04:29:38;;;;;;;5.58;5.08;;;;;;;10.61;100.00;93378.64;1784096;77;21133;-90
2021/09/14 04:32:07;;;;;;;6.25;5.55;;;;;;;10.60;100.00;93387.95;1800182;77;21641;-91
2021/09/14 04:34:36;;;;;;;11.48;5.80;;;;;;;10.59;100.00;93391.84;1801363;78;21114;-89
2021/09/14 04:37:03;;;;;;;19.87;5.97;;;;;;;10.61;100.00;93388.75;1797455;76;21599;-90
2021/09/14 04:39:31;;;;;;;12.63;5.72;;;;;;;10.62;100.00;93390.28;1808476;78;21231;-92
2021/09/14 04:41:58;;;;;;;8.33;5.62;;;;;;;10.64;100.00;93385.21;1781686;77;21100;-92
2021/09/14 04:44:24;;;;;;;20.30;5.65;;;;;;;10.65;100.00;93388.91;1786474;78;21045;-89
2021/09/14 04:46:52;;;;;;;5.35;4.85;;;;;;;10.66;100.00;93391.05;1797161;79;21046;-92
2021/09/14 04:49:19;;;;;;;12.68;5.37;;;;;;;10.67;100.00;93385.78;1734619;80;21003;-91
2021/09/14 04:51:47;;;;;;;9.70;5.17;;;;;;;10.67;100.00;93388.50;1724933;81;21128;-92
2021/09/14 04:54:13;;;;;;;7.42;5.37;;;;;;;10.66;100.00;93393.76;1733456;82;21172;-89
2021/09/14 05:07:17;;;;;;;4.72;4.28;;;;;;;10.75;100.00;93379.72;1719303;82;62539;-92
2021/09/14 05:09:45;;;;;;;6.30;4.45;;;;;;;10.80;100.00;93385.53;1773431;79;21104;-92
2021/09/14 05:34:31;;;;;;;5.20;4.70;;;;;;;11.01;100.00;93387.34;1804472;78;21024;-92
2021/09/14 05:36:58;;;;;;;5.95;5.35;;;;;;;11.02;100.00;93390.27;1793094;77;21084;-90
2021/09/14 05:39:25;;;;;;;4.85;4.45;;;;;;;11.02;100.00;93394.92;1804786;77;21016;-92
2021/09/14 05:44:48;;;;;;;8.98;4.72;;;;;;;10.99;100.00;93396.50;1754078;79;20967;-93
2021/09/14 05:47:16;;;;;;;5.30;4.80;;;;;;;10.98;100.00;93390.85;1807452;78;20968;-91
2021/09/14 05:49:43;;;;;;;5.03;4.55;;;;;;;11.00;100.00;93392.61;1803781;77;21052;-91
2021/09/14 05:52:09;;;;;;;6.60;4.60;;;;;;;11.06;100.00;93395.70;1784128;77;21078;-89
2021/09/14 05:54:38;;;;;;;5.10;4.17;;;;;;;11.15;100.00;93394.66;1825924;76;21459;-90
2021/09/14 05:57:09;;;;;;;4.53;4.12;;;;;;;11.27;100.00;93390.09;1826134;76;21128;-91
2021/09/14 05:59:36;;;;;;;5.17;4.67;;;;;;;11.40;100.00;93395.26;1804677;77;20981;-89
2021/09/14 06:02:03;;;;;;;7.10;5.35;;;;;;;11.53;100.00;93399.63;1803993;77;21002;-92
2021/09/14 06:04:29;;;;;;;7.50;4.80;;;;;;;11.60;100.00;93400.93;1830365;76;20942;-90
2021/09/14 06:06:56;;;;;;;5.33;4.83;;;;;;;11.65;100.00;93397.77;1822598;76;21417;-89
2021/09/14 06:09:24;;;;;;;5.70;5.10;;;;;;;11.72;100.00;93400.25;1802296;77;21033;-89
2021/09/14 06:27:15;;;;;;;9.35;6.70;;;;;;;12.72;100.00;93399.25;1763878;77;21078;-89
2021/09/14 06:36:46;;;;;;;5.08;4.65;;;;;;;13.14;100.00;93402.00;1836557;76;21085;-89
2021/09/14 06:39:13;;;;;;;5.62;5.10;;;;;;;13.43;100.00;93403.00;1809914;77;20926;-90
2021/09/14 06:41:41;;;;;;;5.15;4.65;;;;;;;13.53;100.00;93406.91;1804186;77;21059;-89
2021/09/14 06:44:08;;;;;;;4.90;4.45;;;;;;;13.63;99.64;93402.48;1799280;77;21063;-88
2021/09/14 06:46:51;;;;;;;7.33;4.15;;;;;;;13.73;98.37;93402.14;1781519;77;21155;-88
2021/09/14 06:49:20;;;;;;;5.55;4.97;;;;;;;13.82;97.18;93406.47;1801746;77;21088;-89
2021/09/14 06:51:47;;;;;;;4.00;3.70;;;;;;;13.98;96.26;93402.47;1824321;76;21021;-91
2021/09/14 06:54:17;;;;;;;4.83;4.33;;;;;;;14.28;95.66;93403.52;1808975;77;21089;-89
2021/09/14 06:56:44;;;;;;;6.70;5.75;;;;;;;14.58;93.75;93401.22;1830080;76;21115;-88
2021/09/14 06:59:10;;;;;;;5.37;4.92;;;;;;;14.84;92.67;93402.88;1827908;76;21106;-91
2021/09/14 07:01:37;;;;;;;4.67;4.28;;;;;;;15.06;91.44;93396.53;1811252;77;21068;-89
2021/09/14 07:04:04;;;;;;;5.10;4.60;;;;;;;15.26;90.77;93403.93;1801078;77;21084;-89
2021/09/14 07:06:37;;;;;;;4.70;4.28;;;;;;;15.40;89.97;93397.37;1754198;77;21086;-89
2021/09/14 07:09:04;;;;;;;5.05;4.65;;;;;;;15.51;89.48;93390.45;1794558;77;21045;-88
2021/09/14 07:11:35;;;;;;;4.65;4.22;;;;;;;15.58;89.06;93393.63;1786231;77;21080;-92
2021/09/14 07:14:02;;;;;;;4.42;4.03;;;;;;;15.63;88.20;93392.34;1822420;76;21094;-92
2021/09/14 07:16:28;;;;;;;4.90;4.50;;;;;;;15.61;87.39;93390.03;1800987;77;21108;-89
2021/09/14 07:18:57;;;;;;;4.42;4.03;;;;;;;15.53;87.20;93392.75;1786209;78;21150;-90
2021/09/14 07:21:24;;;;;;;5.28;4.62;;;;;;;15.47;87.39;93396.61;1819900;76;21030;-88
2021/09/14 07:23:52;;;;;;;5.42;4.67;;;;;;;15.44;87.28;93390.61;1822558;76;21050;-92
2021/09/14 07:26:19;;;;;;;5.15;4.75;;;;;;;15.45;87.35;93386.66;1810305;76;21091;-91
2021/09/14 07:28:46;;;;;;;4.97;4.58;;;;;;;15.47;87.51;93387.02;1783443;78;21033;-89
2021/09/14 07:31:14;;;;;;;5.08;4.30;;;;;;;15.49;88.24;93393.43;1791071;79;21030;-89
2021/09/14 07:33:41;;;;;;;5.05;4.55;;;;;;;15.52;89.12;93386.50;1812128;76;21120;-87
2021/09/14 07:36:08;;;;;;;5.08;4.65;;;;;;;15.56;88.99;93386.41;1807585;77;21064;-88
2021/09/14 07:38:40;;;;;;;5.03;4.62;;;;;;;15.58;88.54;93385.41;1805621;77;21646;-91
2021/09/14 07:41:07;;;;;;;5.58;5.08;;;;;;;15.58;88.78;93388.14;1814789;76;21288;-91
2021/09/14 07:43:35;;;;;;;5.33;4.92;;;;;;;15.58;87.76;93390.89;1824893;76;21044;-90
2021/09/14 07:46:01;;;;;;;5.97;5.37;;;;;;;15.59;87.70;93390.28;1821193;76;21061;-88
2021/09/14 07:48:28;;;;;;;5.53;5.03;;;;;;;15.65;87.95;93392.12;1815916;76;20982;-92
2021/09/14 07:50:55;;;;;;;5.08;4.60;;;;;;;15.73;87.92;93394.86;1831143;76;21119;-91
2021/09/14 07:53:21;;;;;;;5.65;5.15;;;;;;;15.81;87.43;93391.95;1825269;76;21102;-90
2021/09/14 07:55:48;;;;;;;5.55;5.08;;;;;;;15.84;87.54;93387.75;1814396;77;21135;-90
2021/09/14 07:58:15;;;;;;;6.35;5.85;;;;;;;15.86;87.36;93393.56;1816371;77;21523;-90
2021/09/14 08:00:41;;;;;;;5.85;5.22;;;;;;;15.89;87.00;93396.05;1826006;76;21944;-87
2021/09/14 08:03:08;;;;;;;5.60;5.17;;;;;;;15.92;87.41;93391.09;1803316;78;21395;-91
2021/09/14 08:05:36;;;;;;;9.00;6.03;;;;;;;15.97;87.51;93384.47;1809633;76;21768;-90
2021/09/14 08:08:03;;;;;;;5.80;5.30;;;;;;;16.05;87.54;93388.41;1820827;76;21008;-90
2021/09/14 08:10:30;;;;;;;5.78;5.28;;;;;;;16.11;87.89;93388.06;1796572;78;21064;-90
2021/09/14 08:12:56;;;;;;;6.62;5.00;;;;;;;16.17;87.60;93387.70;1801609;77;21088;-87
2021/09/14 08:15:24;;;;;;;5.30;4.90;;;;;;;16.24;87.44;93387.52;1789431;77;21137;-90
2021/09/14 08:17:50;;;;;;;6.15;5.55;;;;;;;16.28;86.52;93390.94;1809072;76;21376;-90
2021/09/14 08:20:18;;;;;;;7.90;7.00;;;;;;;16.34;86.20;93385.70;1827445;76;21060;-92
2021/09/14 08:22:44;;;;;;;5.53;5.03;;;;;;;16.38;85.93;93385.77;1829435;76;21045;-89
2021/09/14 08:25:13;;;;;;;6.22;5.17;;;;;;;16.44;85.58;93383.29;1779567;78;21881;-88
2021/09/14 08:27:41;;;;;;;5.53;5.03;;;;;;;16.48;85.55;93380.61;1796735;77;21116;-91
2021/09/14 08:33:41;;;;;;;5.45;4.95;;;;;;;16.54;85.71;93379.47;1749630;80;20981;-87
2021/09/14 08:36:09;;;;;;;5.08;4.67;;;;;;;16.64;86.17;93374.89;1778464;78;21103;-88
2021/09/14 08:38:35;;;;;;;5.50;5.00;;;;;;;16.72;85.66;93369.37;1764329;79;21056;-87
2021/09/14 08:41:01;;;;;;;5.25;4.62;;;;;;;16.78;85.11;93370.41;1757390;78;22181;-88
2021/09/14 08:43:29;;;;;;;5.30;4.90;;;;;;;16.83;84.32;93369.10;1743051;77;20976;-88
2021/09/14 08:45:56;;;;;;;6.25;5.10;;;;;;;16.87;83.33;93376.02;1757332;79;21134;-92
2021/09/14 08:48:23;;;;;;;5.00;4.58;;;;;;;16.89;82.79;93368.13;1756345;79;21101;-89
2021/09/14 08:50:50;;;;;;;5.30;4.90;;;;;;;16.92;82.15;93365.09;1787640;78;21655;-89
2021/09/14 08:53:17;;;;;;;4.60;4.30;;;;;;;16.96;81.83;93371.25;1767835;78;21682;-90
2021/09/14 08:55:44;;;;;;;5.37;4.87;;;;;;;17.05;81.22;93370.02;1782241;78;21557;-88
2021/09/14 08:58:13;;;;;;;5.58;5.08;;;;;;;17.09;80.06;93369.31;1788036;78;21114;-89
2021/09/14 09:00:41;;;;;;;5.75;5.22;;;;;;;17.12;79.95;93363.55;1793853;77;21063;-89
2021/09/14 09:03:09;;;;;;;5.55;5.08;;;;;;;17.16;80.69;93364.98;1769037;78;21129;-93
2021/09/14 09:05:39;;;;;;;6.03;5.53;;;;;;;17.21;80.06;93363.05;1770339;78;21101;-87
2021/09/14 09:08:24;;;;;;;7.75;7.05;;;;;;;17.27;80.08;93365.27;1787103;78;21584;-89
2021/09/14 09:11:09;;;;;;;7.72;6.97;;;;;;;17.32;80.26;93369.60;1764469;79;21044;-88
2021/09/14 09:13:47;;;;;;;7.42;6.72;;;;;;;17.37;80.10;93363.55;1737729;80;21024;-91
2021/09/14 09:16:19;;;;;;;6.90;6.30;;;;;;;17.42;80.43;93368.52;1774090;79;21218;-89
2021/09/14 09:18:54;;;;;;;8.33;7.62;;;;;;;17.48;80.54;93365.97;1795890;77;21079;-88
2021/09/14 09:21:30;;;;;;;6.40;5.87;;;;;;;17.53;79.60;93370.94;1739384;80;21169;-89
2021/09/14 09:23:59;;;;;;;4.45;4.12;;;;;;;17.57;78.76;93372.97;1810694;76;21028;-92
2021/09/14 09:26:34;;;;;;;4.70;4.35;;;;;;;17.64;77.32;93372.75;1787111;77;21077;-87
2021/09/14 09:29:04;;;;;;;4.15;3.85;;;;;;;17.72;76.59;93374.05;1750478;79;21126;-90
2021/09/14 09:31:35;;;;;;;4.08;3.77;;;;;;;17.81;76.17;93376.77;1729267;81;21186;-88
2021/09/14 09:34:09;;;;;;;4.97;4.40;;;;;;;17.86;76.41;93378.95;1748739;79;21166;-90
2021/09/14 09:36:42;;;;;;;5.10;4.70;;;;;;;17.90;76.15;93368.59;1769816;79;20962;-91
2021/09/14 09:39:13;;;;;;;4.97;4.53;;;;;;;17.91;76.11;93368.17;1750579;79;21001;-88
2021/09/14 09:41:56;;;;;;;4.60;4.20;;;;;;;17.93;75.26;93368.48;1783944;79;21024;-90
2021/09/14 09:44:22;;;;;;;6.20;4.97;;;;;;;18.00;75.73;93367.48;1805626;77;21029;-91
2021/09/14 09:47:03;;;;;;;8.15;4.45;;;;;;;18.07;75.37;93367.86;1793793;77;21468;-88
2021/09/14 09:49:36;;;;;;;4.62;4.33;;;;;;;18.12;75.52;93369.43;1789169;78;21273;-90
2021/09/14 09:52:03;;;;;;;6.20;4.65;;;;;;;18.16;75.08;93369.31;1762677;78;22417;-89
2021/09/14 09:54:41;;;;;;;4.80;4.40;;;;;;;18.17;75.22;93359.25;1737857;80;21525;-89
2021/09/14 09:57:07;;;;;;;4.55;4.15;;;;;;;18.19;74.45;93369.19;1760967;80;21116;-89
2021/09/14 09:59:33;;;;;;;4.58;4.20;;;;;;;18.24;74.02;93362.37;1746888;79;21057;-88
2021/09/14 10:02:13;;;;;;;4.75;4.25;;;;;;;18.29;73.20;93357.67;1771260;80;21055;-91
2021/09/14 10:05:04;;;;;;;4.90;4.40;;;;;;;18.27;71.73;93355.95;1744538;79;21073;-86
2021/09/14 10:07:31;;;;;;;4.87;4.53;;;;;;;18.25;72.93;93361.77;1767932;79;21138;-88
2021/09/14 10:09:59;;;;;;;4.90;4.50;;;;;;;18.28;73.54;93356.14;1770797;79;21122;-88
2021/09/14 10:12:32;;;;;;;4.50;3.80;;;;;;;18.35;73.42;93355.86;1763788;79;21066;-85
2021/09/14 10:15:11;;;;;;;4.45;4.10;;;;;;;18.41;73.34;93358.83;1750667;79;21016;-89
2021/09/14 10:17:52;;;;;;;4.80;4.40;;;;;;;18.45;72.78;93360.23;1707482;79;20982;-89
2021/09/14 10:20:25;;;;;;;4.62;4.22;;;;;;;18.50;73.10;93360.27;1722432;79;21006;-89
2021/09/14 10:23:04;;;;;;;4.62;4.22;;;;;;;18.53;73.05;93358.00;1771037;78;21091;-90
2021/09/14 10:25:31;;;;;;;4.47;4.17;;;;;;;18.58;72.55;93358.03;1720016;79;21032;-88
2021/09/14 10:28:12;;;;;;;5.15;4.65;;;;;;;18.59;72.39;93358.98;1735590;80;21814;-90
2021/09/14 10:30:40;;;;;;;5.08;4.55;;;;;;;18.60;71.76;93359.74;1789784;78;21110;-90
2021/09/14 10:33:20;;;;;;;4.33;3.95;;;;;;;18.59;71.94;93347.97;1760300;79;21068;-89
2021/09/14 10:35:47;;;;;;;5.03;4.58;;;;;;;18.55;72.19;93355.59;1748001;80;21225;-88
2021/09/14 10:38:15;;;;;;;4.33;4.00;;;;;;;18.49;73.16;93355.98;1768601;79;21041;-87
2021/09/14 10:40:48;;;;;;;5.12;4.33;;;;;;;18.43;73.89;93355.80;1753384;79;21174;-89
2021/09/14 10:43:22;;;;;;;4.90;4.50;;;;;;;18.35;73.50;93354.49;1782435;79;21062;-89
2021/09/14 10:45:49;;;;;;;5.37;4.87;;;;;;;18.24;74.10;93356.87;1739505;81;21081;-91
2021/09/14 10:48:28;;;;;;;7.10;5.12;;;;;;;18.18;75.11;93364.14;1794771;77;21053;-87
2021/09/14 10:51:12;;;;;;;5.85;5.25;;;;;;;18.16;75.92;93357.69;1820533;76;21040;-88
2021/09/14 10:53:40;;;;;;;;;;;;;;;18.16;75.97;93362.43;1800745;77;21531;-90
2021/09/14 10:56:10;;;;;;;5.97;4.47;;;;;;;18.18;75.97;93364.91;1805951;77;20676;-88
2021/09/14 10:58:42;;;;;;;5.22;4.83;;;;;;;18.23;76.22;93364.94;1800999;76;21064;-90
2021/09/14 11:01:09;;;;;;;6.47;5.10;;;;;;;18.27;75.12;93366.97;1819384;76;21082;-86
2021/09/14 11:03:37;;;;;;;4.67;4.33;;;;;;;18.26;74.51;93372.31;1825846;76;21083;-89
2021/09/14 11:06:03;;;;;;;9.55;5.37;;;;;;;18.28;74.62;93371.27;1802381;78;21021;-89
2021/09/14 11:08:30;;;;;;;5.12;4.72;;;;;;;18.29;74.52;93374.18;1804786;76;21982;-87
2021/09/14 11:11:00;;;;;;;4.55;4.15;;;;;;;18.27;74.38;93369.72;1825665;76;21687;-84
2021/09/14 11:13:31;;;;;;;5.17;4.67;;;;;;;18.26;73.82;93374.30;1793516;77;21085;-88
2021/09/14 11:16:05;;;;;;;5.25;4.42;;;;;;;18.20;74.12;93369.95;1794608;77;21116;-89
2021/09/14 11:18:34;;;;;;;5.58;5.08;;;;;;;18.15;74.43;93368.55;1797215;78;21048;-87
2021/09/14 11:21:08;;;;;;;5.03;4.62;;;;;;;18.11;74.68;93365.14;1797898;77;21016;-90
2021/09/14 11:23:38;;;;;;;6.37;4.80;;;;;;;18.09;75.19;93364.84;1793114;78;21002;-88
2021/09/14 11:26:08;;;;;;;5.78;5.17;;;;;;;18.07;75.91;93368.63;1801109;77;21104;-87
2021/09/14 11:28:36;;;;;;;5.22;4.80;;;;;;;18.05;75.68;93363.39;1823004;77;20935;-87
2021/09/14 11:31:11;;;;;;;4.50;4.20;;;;;;;18.04;75.46;93365.98;1787361;77;21065;-89
2021/09/14 11:33:44;;;;;;;6.17;4.62;;;;;;;18.05;75.88;93360.03;1811045;77;21043;-89
2021/09/14 11:36:11;;;;;;;4.72;4.37;;;;;;;18.11;75.30;93356.13;1763083;79;21153;-89
2021/09/14 11:38:39;;;;;;;4.45;4.10;;;;;;;18.18;75.40;93353.14;1750712;79;21045;-85
2021/09/14 11:41:11;;;;;;;5.33;4.60;;;;;;;18.24;74.95;93352.74;1748963;80;21159;-85
2021/09/14 11:43:41;;;;;;;4.87;4.47;;;;;;;18.28;73.74;93352.59;1728065;80;21082;-86
2021/09/14 11:46:20;;;;;;;5.47;4.37;;;;;;;18.34;74.59;93353.57;1778717;78;21426;-89
2021/09/14 11:49:01;;;;;;;5.28;4.78;;;;;;;18.42;74.33;93354.86;1792665;76;21033;-87
2021/09/14 11:51:31;;;;;;;5.85;5.28;;;;;;;18.48;74.37;93355.83;1798724;76;21057;-86
2021/09/14 11:53:58;;;;;;;7.78;5.03;;;;;;;18.41;75.00;93362.96;1798432;77;21992;-90
2021/09/14 11:56:26;;;;;;;5.65;5.15;;;;;;;18.25;75.68;93364.52;1789822;78;20986;-88
2021/09/14 11:58:55;;;;;;;6.12;5.55;;;;;;;18.07;75.86;93367.25;1779921;79;21135;-88
2021/09/14 12:01:23;;;;;;;5.92;5.42;;;;;;;17.84;75.64;93371.15;1777678;78;21112;-89
2021/09/14 12:03:53;;;;;;;6.22;5.72;;;;;;;17.63;76.50;93372.56;1784496;78;21231;-89
2021/09/14 12:06:32;;;;;;;6.70;5.92;;;;;;;17.50;76.63;93380.06;1782990;78;21024;-89
2021/09/14 12:09:11;;;;;;;7.35;5.70;;;;;;;17.38;77.12;93382.97;1799664;77;21247;-90
2021/09/14 12:11:39;;;;;;;6.35;5.75;;;;;;;17.27;77.65;93377.64;1787737;78;21043;-89
2021/09/14 12:14:13;;;;;;;7.00;6.10;;;;;;;17.19;78.65;93376.48;1779574;78;21077;-87
2021/09/14 12:16:44;;;;;;;5.90;5.40;;;;;;;17.16;79.48;93369.71;1794609;78;21073;-89
2021/09/14 12:19:13;;;;;;;6.00;5.50;;;;;;;17.12;79.99;93375.31;1789958;79;21666;-89
2021/09/14 12:21:45;;;;;;;5.85;5.25;;;;;;;17.10;80.23;93375.58;1785774;79;21570;-88
2021/09/14 12:24:12;;;;;;;6.90;5.58;;;;;;;17.08;80.04;93376.63;1790416;78;21078;-86
2021/09/14 12:26:46;;;;;;;6.42;5.83;;;;;;;17.05;80.01;93380.25;1806891;76;21080;-90
2021/09/14 12:29:13;;;;;;;7.12;5.83;;;;;;;16.99;80.05;93378.02;1815754;76;21092;-88
2021/09/14 12:31:41;;;;;;;5.87;5.37;;;;;;;16.96;80.27;93378.13;1794041;78;21029;-88
2021/09/14 12:34:08;;;;;;;6.28;5.67;;;;;;;16.93;80.31;93374.90;1790001;78;21014;-90
2021/09/14 12:36:39;;;;;;;7.40;6.00;;;;;;;16.89;80.85;93374.23;1821433;76;21036;-88
2021/09/14 12:39:08;;;;;;;5.80;5.20;;;;;;;16.86;81.11;93371.75;1807575;76;20977;-86
2021/09/14 12:41:35;;;;;;;7.30;6.60;;;;;;;16.84;81.60;93373.38;1782199;78;21303;-89
2021/09/14 12:44:04;;;;;;;6.47;5.87;;;;;;;16.80;82.04;93378.20;1781797;78;21074;-90
2021/09/14 12:46:32;;;;;;;5.95;5.45;;;;;;;16.80;82.90;93379.58;1757976;78;21103;-87
2021/09/14 12:48:59;;;;;;;6.87;6.28;;;;;;;16.77;83.98;93372.20;1783004;78;21034;-88
2021/09/14 12:51:27;;;;;;;9.98;7.33;;;;;;;16.71;83.80;93382.33;1785734;78;21029;-89
2021/09/14 12:53:54;;;;;;;8.30;6.78;;;;;;;16.67;83.94;93385.02;1817439;76;22433;-90
2021/09/14 12:56:20;;;;;;;8.00;6.33;;;;;;;16.65;84.56;93388.78;1793209;78;21036;-90
2021/09/14 12:58:47;;;;;;;7.00;5.95;;;;;;;16.62;84.88;93380.80;1799415;78;21158;-90
2021/09/14 13:01:13;;;;;;;8.03;6.10;;;;;;;16.60;85.01;93377.73;1759320;79;21009;-89
2021/09/14 13:03:40;;;;;;;7.87;7.03;;;;;;;16.60;84.49;93373.62;1770362;78;21079;-89
2021/09/14 13:06:09;;;;;;;8.28;7.37;;;;;;;16.61;84.17;93377.90;1746014;79;21081;-87
2021/09/14 13:08:36;;;;;;;9.13;7.53;;;;;;;16.60;84.75;93383.23;1783628;79;21064;-91
2021/09/14 13:11:04;;;;;;;9.08;6.80;;;;;;;16.58;85.64;93381.51;1783320;77;21048;-88
2021/09/14 13:16:18;;;;;;;7.95;7.20;;;;;;;16.53;89.04;93379.91;1783542;78;21084;-89
2021/09/14 13:18:48;;;;;;;8.25;7.03;;;;;;;16.45;90.95;93378.73;1795977;77;21065;-90
2021/09/14 13:21:16;;;;;;;8.13;7.33;;;;;;;16.40;92.12;93373.02;1792929;77;21042;-92
2021/09/14 13:23:44;;;;;;;7.90;7.08;;;;;;;16.38;93.37;93374.80;1785665;78;21037;-89
2021/09/14 13:26:11;;;;;;;8.53;7.72;;;;;;;16.39;94.62;93376.94;1803513;77;21018;-91
2021/09/14 13:28:39;;;;;;;7.55;6.85;;;;;;;16.38;95.29;93372.05;1819111;76;21666;-92
2021/09/14 13:31:08;;;;;;;9.80;7.87;;;;;;;16.36;95.64;93368.98;1798675;77;21456;-91
2021/09/14 13:33:36;;;;;;;8.45;7.55;;;;;;;16.34;95.99;93369.24;1805925;77;20951;-88
2021/09/14 13:36:03;;;;;;;8.38;7.60;;;;;;;16.32;96.33;93365.55;1798955;77;21077;-92
2021/09/14 13:38:30;;;;;;;6.37;5.83;;;;;;;16.29;96.54;93371.16;1789448;78;21130;-87